sensor_id;sensor_type;location;lat;lon;timestamp;P1;durP1;ratioP1;P2;durP2;ratioP2
50815;SDS011;39717;47.324;8.788;2022-12-22T00:01:35;8.23;;;6.77;;
50815;SDS011;39717;47.324;8.788;2022-12-22T00:04:20;9.87;;;7.40;;
50815;SDS011;39717;47.324;8.788;2022-12-22T00:07:05;12.67;;;7.30;;
50815;SDS011;39717;47.324;8.788;2022-12-22T00:09:49;8.60;;;7.10;;
50815;SDS011;39717;47.324;8.788;2022-12-22T00:12:34;12.60;;;7.97;;
50815;SDS011;39717;47.324;8.788;2022-12-22T00:15:19;8.60;;;7.20;;
50815;SDS011;39717;47.324;8.788;2022-12-22T00:18:03;9.07;;;7.07;;
50815;SDS011;39717;47.324;8.788;2022-12-22T00:20:48;10.23;;;7.93;;
50815;SDS011;39717;47.324;8.788;2022-12-22T00:23:33;9.37;;;6.97;;
50815;SDS011;39717;47.324;8.788;2022-12-22T00:26:18;10.30;;;7.40;;
50815;SDS011;39717;47.324;8.788;2022-12-22T00:29:03;11.57;;;7.70;;
50815;SDS011;39717;47.324;8.788;2022-12-22T00:31:47;11.70;;;7.63;;
50815;SDS011;39717;47.324;8.788;2022-12-22T00:34:38;10.87;;;7.53;;
50815;SDS011;39717;47.324;8.788;2022-12-22T00:37:28;12.13;;;8.20;;
50815;SDS011;39717;47.324;8.788;2022-12-22T00:40:15;12.03;;;7.97;;
50815;SDS011;39717;47.324;8.788;2022-12-22T00:43:01;13.20;;;8.13;;
50815;SDS011;39717;47.324;8.788;2022-12-22T00:45:46;11.43;;;7.90;;
50815;SDS011;39717;47.324;8.788;2022-12-22T00:48:31;9.30;;;7.13;;
50815;SDS011;39717;47.324;8.788;2022-12-22T00:51:15;8.50;;;6.43;;
50815;SDS011;39717;47.324;8.788;2022-12-22T00:53:59;9.40;;;6.50;;
50815;SDS011;39717;47.324;8.788;2022-12-22T00:56:44;11.30;;;8.43;;
50815;SDS011;39717;47.324;8.788;2022-12-22T00:59:29;10.30;;;7.07;;
50815;SDS011;39717;47.324;8.788;2022-12-22T01:02:13;10.23;;;7.07;;
50815;SDS011;39717;47.324;8.788;2022-12-22T01:04:57;8.93;;;6.27;;
50815;SDS011;39717;47.324;8.788;2022-12-22T01:07:41;11.23;;;6.60;;
50815;SDS011;39717;47.324;8.788;2022-12-22T01:10:26;13.67;;;6.40;;
50815;SDS011;39717;47.324;8.788;2022-12-22T01:13:13;10.83;;;6.10;;
50815;SDS011;39717;47.324;8.788;2022-12-22T01:15:58;9.10;;;6.00;;
50815;SDS011;39717;47.324;8.788;2022-12-22T01:18:43;5.50;;;4.80;;
50815;SDS011;39717;47.324;8.788;2022-12-22T01:21:28;7.73;;;5.57;;
50815;SDS011;39717;47.324;8.788;2022-12-22T01:24:13;6.80;;;5.27;;
50815;SDS011;39717;47.324;8.788;2022-12-22T01:26:59;6.50;;;5.20;;
50815;SDS011;39717;47.324;8.788;2022-12-22T01:29:43;5.73;;;5.10;;
50815;SDS011;39717;47.324;8.788;2022-12-22T01:32:28;6.97;;;5.17;;
50815;SDS011;39717;47.324;8.788;2022-12-22T01:35:17;6.60;;;5.43;;
50815;SDS011;39717;47.324;8.788;2022-12-22T01:38:04;7.17;;;5.10;;
50815;SDS011;39717;47.324;8.788;2022-12-22T01:40:49;6.60;;;4.97;;
50815;SDS011;39717;47.324;8.788;2022-12-22T01:43:35;6.77;;;5.10;;
50815;SDS011;39717;47.324;8.788;2022-12-22T01:46:23;6.37;;;4.70;;
50815;SDS011;39717;47.324;8.788;2022-12-22T01:49:29;4.63;;;3.60;;
50815;SDS011;39717;47.324;8.788;2022-12-22T01:52:24;6.40;;;4.47;;
50815;SDS011;39717;47.324;8.788;2022-12-22T01:55:21;7.50;;;4.63;;
50815;SDS011;39717;47.324;8.788;2022-12-22T01:58:09;5.67;;;5.07;;
50815;SDS011;39717;47.324;8.788;2022-12-22T02:01:02;7.33;;;5.10;;
50815;SDS011;39717;47.324;8.788;2022-12-22T02:03:47;8.77;;;5.43;;
50815;SDS011;39717;47.324;8.788;2022-12-22T02:06:32;8.90;;;5.30;;
50815;SDS011;39717;47.324;8.788;2022-12-22T02:15:16;5.80;;;4.40;;
50815;SDS011;39717;47.324;8.788;2022-12-22T02:20:57;5.47;;;4.50;;
50815;SDS011;39717;47.324;8.788;2022-12-22T02:23:52;6.13;;;4.43;;
50815;SDS011;39717;47.324;8.788;2022-12-22T02:26:46;7.83;;;5.00;;
50815;SDS011;39717;47.324;8.788;2022-12-22T02:29:34;4.80;;;4.30;;
50815;SDS011;39717;47.324;8.788;2022-12-22T02:32:23;7.90;;;4.50;;
50815;SDS011;39717;47.324;8.788;2022-12-22T02:35:13;8.10;;;5.50;;
50815;SDS011;39717;47.324;8.788;2022-12-22T02:41:20;4.47;;;4.07;;
50815;SDS011;39717;47.324;8.788;2022-12-22T02:51:16;4.87;;;4.43;;
50815;SDS011;39717;47.324;8.788;2022-12-22T02:54:06;5.10;;;4.23;;
50815;SDS011;39717;47.324;8.788;2022-12-22T02:56:51;5.60;;;4.67;;
50815;SDS011;39717;47.324;8.788;2022-12-22T02:59:35;7.27;;;5.10;;
50815;SDS011;39717;47.324;8.788;2022-12-22T03:02:20;7.10;;;5.03;;
50815;SDS011;39717;47.324;8.788;2022-12-22T03:05:04;9.37;;;5.50;;
50815;SDS011;39717;47.324;8.788;2022-12-22T03:07:48;6.30;;;5.20;;
50815;SDS011;39717;47.324;8.788;2022-12-22T03:10:32;7.63;;;5.63;;
50815;SDS011;39717;47.324;8.788;2022-12-22T03:13:16;5.93;;;5.10;;
50815;SDS011;39717;47.324;8.788;2022-12-22T03:16:00;6.63;;;5.60;;
50815;SDS011;39717;47.324;8.788;2022-12-22T03:18:45;5.67;;;4.97;;
50815;SDS011;39717;47.324;8.788;2022-12-22T03:21:29;7.47;;;5.73;;
50815;SDS011;39717;47.324;8.788;2022-12-22T03:24:13;6.83;;;5.17;;
50815;SDS011;39717;47.324;8.788;2022-12-22T03:26:57;5.90;;;4.90;;
50815;SDS011;39717;47.324;8.788;2022-12-22T03:29:23;7.27;;;4.93;;
50815;SDS011;39717;47.324;8.788;2022-12-22T03:31:48;6.53;;;5.13;;
50815;SDS011;39717;47.324;8.788;2022-12-22T03:34:14;5.63;;;4.90;;
50815;SDS011;39717;47.324;8.788;2022-12-22T03:36:40;6.20;;;4.63;;
50815;SDS011;39717;47.324;8.788;2022-12-22T03:39:06;5.50;;;4.80;;
50815;SDS011;39717;47.324;8.788;2022-12-22T03:41:31;5.77;;;4.37;;
50815;SDS011;39717;47.324;8.788;2022-12-22T03:44:32;6.93;;;4.60;;
50815;SDS011;39717;47.324;8.788;2022-12-22T03:47:17;7.50;;;4.80;;
50815;SDS011;39717;47.324;8.788;2022-12-22T03:49:42;5.23;;;3.97;;
50815;SDS011;39717;47.324;8.788;2022-12-22T03:52:08;5.37;;;4.30;;
50815;SDS011;39717;47.324;8.788;2022-12-22T03:54:34;5.33;;;3.90;;
50815;SDS011;39717;47.324;8.788;2022-12-22T03:57:00;3.97;;;3.10;;
50815;SDS011;39717;47.324;8.788;2022-12-22T03:59:25;5.93;;;3.37;;
50815;SDS011;39717;47.324;8.788;2022-12-22T04:01:52;4.07;;;3.20;;
50815;SDS011;39717;47.324;8.788;2022-12-22T04:04:19;3.50;;;3.20;;
50815;SDS011;39717;47.324;8.788;2022-12-22T04:06:47;4.87;;;3.20;;
50815;SDS011;39717;47.324;8.788;2022-12-22T04:09:13;5.23;;;3.13;;
50815;SDS011;39717;47.324;8.788;2022-12-22T04:11:39;5.20;;;2.97;;
50815;SDS011;39717;47.324;8.788;2022-12-22T04:14:24;4.43;;;2.90;;
50815;SDS011;39717;47.324;8.788;2022-12-22T04:16:50;3.17;;;2.87;;
50815;SDS011;39717;47.324;8.788;2022-12-22T04:19:16;5.60;;;3.07;;
50815;SDS011;39717;47.324;8.788;2022-12-22T04:21:42;3.33;;;3.00;;
50815;SDS011;39717;47.324;8.788;2022-12-22T04:24:09;5.40;;;3.27;;
50815;SDS011;39717;47.324;8.788;2022-12-22T04:26:36;3.60;;;2.97;;
50815;SDS011;39717;47.324;8.788;2022-12-22T04:29:02;3.00;;;2.70;;
50815;SDS011;39717;47.324;8.788;2022-12-22T04:31:28;3.93;;;2.97;;
50815;SDS011;39717;47.324;8.788;2022-12-22T04:33:54;3.67;;;2.93;;
50815;SDS011;39717;47.324;8.788;2022-12-22T04:36:19;2.80;;;2.60;;
50815;SDS011;39717;47.324;8.788;2022-12-22T04:38:45;3.40;;;2.47;;
50815;SDS011;39717;47.324;8.788;2022-12-22T04:41:11;3.90;;;3.10;;
50815;SDS011;39717;47.324;8.788;2022-12-22T04:43:37;4.93;;;2.50;;
50815;SDS011;39717;47.324;8.788;2022-12-22T04:46:03;2.90;;;2.03;;
50815;SDS011;39717;47.324;8.788;2022-12-22T04:48:29;2.33;;;2.00;;
50815;SDS011;39717;47.324;8.788;2022-12-22T04:50:57;2.60;;;2.40;;
50815;SDS011;39717;47.324;8.788;2022-12-22T04:53:24;3.33;;;2.60;;
50815;SDS011;39717;47.324;8.788;2022-12-22T04:55:54;3.27;;;2.50;;
50815;SDS011;39717;47.324;8.788;2022-12-22T04:58:23;2.47;;;2.23;;
50815;SDS011;39717;47.324;8.788;2022-12-22T05:00:49;5.80;;;2.80;;
50815;SDS011;39717;47.324;8.788;2022-12-22T05:03:15;5.03;;;2.50;;
50815;SDS011;39717;47.324;8.788;2022-12-22T05:05:41;2.87;;;2.33;;
50815;SDS011;39717;47.324;8.788;2022-12-22T05:08:07;4.07;;;2.30;;
50815;SDS011;39717;47.324;8.788;2022-12-22T05:10:33;3.07;;;2.00;;
50815;SDS011;39717;47.324;8.788;2022-12-22T05:12:58;5.17;;;2.60;;
50815;SDS011;39717;47.324;8.788;2022-12-22T05:15:25;2.87;;;2.20;;
50815;SDS011;39717;47.324;8.788;2022-12-22T05:17:53;2.23;;;1.90;;
50815;SDS011;39717;47.324;8.788;2022-12-22T05:20:20;3.23;;;2.70;;
50815;SDS011;39717;47.324;8.788;2022-12-22T05:22:47;4.30;;;2.73;;
50815;SDS011;39717;47.324;8.788;2022-12-22T05:25:13;5.67;;;2.70;;
50815;SDS011;39717;47.324;8.788;2022-12-22T05:27:41;6.83;;;2.80;;
50815;SDS011;39717;47.324;8.788;2022-12-22T05:30:08;5.20;;;2.60;;
50815;SDS011;39717;47.324;8.788;2022-12-22T05:32:34;3.13;;;2.80;;
50815;SDS011;39717;47.324;8.788;2022-12-22T05:35:01;7.07;;;3.23;;
50815;SDS011;39717;47.324;8.788;2022-12-22T05:37:28;4.33;;;2.57;;
50815;SDS011;39717;47.324;8.788;2022-12-22T05:39:55;5.83;;;2.53;;
50815;SDS011;39717;47.324;8.788;2022-12-22T05:42:21;3.47;;;2.87;;
50815;SDS011;39717;47.324;8.788;2022-12-22T05:47:32;5.27;;;3.90;;
50815;SDS011;39717;47.324;8.788;2022-12-22T05:49:58;7.00;;;3.67;;
50815;SDS011;39717;47.324;8.788;2022-12-22T05:52:24;9.03;;;4.03;;
50815;SDS011;39717;47.324;8.788;2022-12-22T05:54:49;4.37;;;2.90;;
50815;SDS011;39717;47.324;8.788;2022-12-22T05:57:15;4.60;;;3.17;;
50815;SDS011;39717;47.324;8.788;2022-12-22T05:59:41;5.00;;;3.37;;
50815;SDS011;39717;47.324;8.788;2022-12-22T06:02:07;3.17;;;2.67;;
50815;SDS011;39717;47.324;8.788;2022-12-22T06:04:33;7.83;;;4.13;;
50815;SDS011;39717;47.324;8.788;2022-12-22T06:06:58;4.77;;;2.90;;
50815;SDS011;39717;47.324;8.788;2022-12-22T06:09:24;4.07;;;3.20;;
50815;SDS011;39717;47.324;8.788;2022-12-22T06:11:50;3.60;;;2.83;;
50815;SDS011;39717;47.324;8.788;2022-12-22T06:14:16;3.37;;;2.67;;
50815;SDS011;39717;47.324;8.788;2022-12-22T06:16:41;5.37;;;2.83;;
50815;SDS011;39717;47.324;8.788;2022-12-22T06:19:07;7.10;;;3.03;;
50815;SDS011;39717;47.324;8.788;2022-12-22T06:21:33;7.07;;;3.07;;
50815;SDS011;39717;47.324;8.788;2022-12-22T06:23:59;2.60;;;2.40;;
50815;SDS011;39717;47.324;8.788;2022-12-22T06:26:24;3.43;;;2.43;;
50815;SDS011;39717;47.324;8.788;2022-12-22T06:28:51;4.27;;;2.50;;
50815;SDS011;39717;47.324;8.788;2022-12-22T06:31:17;6.97;;;3.33;;
50815;SDS011;39717;47.324;8.788;2022-12-22T06:33:43;3.97;;;2.67;;
50815;SDS011;39717;47.324;8.788;2022-12-22T06:36:09;4.00;;;2.43;;
50815;SDS011;39717;47.324;8.788;2022-12-22T06:38:35;3.60;;;2.33;;
50815;SDS011;39717;47.324;8.788;2022-12-22T06:41:01;4.67;;;2.40;;
50815;SDS011;39717;47.324;8.788;2022-12-22T06:43:27;4.23;;;2.87;;
50815;SDS011;39717;47.324;8.788;2022-12-22T06:45:52;6.20;;;2.40;;
50815;SDS011;39717;47.324;8.788;2022-12-22T06:48:18;3.17;;;2.23;;
50815;SDS011;39717;47.324;8.788;2022-12-22T06:50:45;3.73;;;1.60;;
50815;SDS011;39717;47.324;8.788;2022-12-22T06:53:11;2.03;;;1.70;;
50815;SDS011;39717;47.324;8.788;2022-12-22T06:55:37;2.57;;;1.37;;
50815;SDS011;39717;47.324;8.788;2022-12-22T06:58:03;5.53;;;2.20;;
50815;SDS011;39717;47.324;8.788;2022-12-22T07:00:29;4.03;;;1.50;;
50815;SDS011;39717;47.324;8.788;2022-12-22T07:02:55;3.97;;;1.97;;
50815;SDS011;39717;47.324;8.788;2022-12-22T07:05:21;3.17;;;2.00;;
50815;SDS011;39717;47.324;8.788;2022-12-22T07:07:48;3.60;;;2.23;;
50815;SDS011;39717;47.324;8.788;2022-12-22T07:10:14;3.00;;;1.70;;
50815;SDS011;39717;47.324;8.788;2022-12-22T07:12:40;5.20;;;2.10;;
50815;SDS011;39717;47.324;8.788;2022-12-22T07:15:06;3.53;;;1.73;;
50815;SDS011;39717;47.324;8.788;2022-12-22T07:17:33;3.63;;;1.80;;
50815;SDS011;39717;47.324;8.788;2022-12-22T07:19:59;5.27;;;2.27;;
50815;SDS011;39717;47.324;8.788;2022-12-22T07:22:24;4.33;;;2.07;;
50815;SDS011;39717;47.324;8.788;2022-12-22T07:24:50;7.83;;;2.27;;
50815;SDS011;39717;47.324;8.788;2022-12-22T07:27:16;3.67;;;1.80;;
50815;SDS011;39717;47.324;8.788;2022-12-22T07:29:42;1.83;;;1.60;;
50815;SDS011;39717;47.324;8.788;2022-12-22T07:32:07;3.13;;;1.93;;
50815;SDS011;39717;47.324;8.788;2022-12-22T07:34:33;4.50;;;1.50;;
50815;SDS011;39717;47.324;8.788;2022-12-22T07:36:59;2.13;;;1.70;;
50815;SDS011;39717;47.324;8.788;2022-12-22T07:39:25;5.97;;;2.00;;
50815;SDS011;39717;47.324;8.788;2022-12-22T07:41:50;3.30;;;1.90;;
50815;SDS011;39717;47.324;8.788;2022-12-22T07:44:35;4.90;;;1.80;;
50815;SDS011;39717;47.324;8.788;2022-12-22T07:47:00;4.53;;;2.80;;
50815;SDS011;39717;47.324;8.788;2022-12-22T07:49:26;3.23;;;2.33;;
50815;SDS011;39717;47.324;8.788;2022-12-22T07:52:10;3.33;;;1.67;;
50815;SDS011;39717;47.324;8.788;2022-12-22T07:54:36;1.77;;;1.20;;
50815;SDS011;39717;47.324;8.788;2022-12-22T07:57:02;1.80;;;1.23;;
50815;SDS011;39717;47.324;8.788;2022-12-22T07:59:28;2.13;;;1.10;;
50815;SDS011;39717;47.324;8.788;2022-12-22T08:01:54;2.30;;;1.00;;
50815;SDS011;39717;47.324;8.788;2022-12-22T08:04:19;1.73;;;1.20;;
50815;SDS011;39717;47.324;8.788;2022-12-22T08:06:46;1.80;;;1.03;;
50815;SDS011;39717;47.324;8.788;2022-12-22T08:09:13;1.80;;;1.30;;
50815;SDS011;39717;47.324;8.788;2022-12-22T08:11:41;4.00;;;1.40;;
50815;SDS011;39717;47.324;8.788;2022-12-22T08:14:07;2.37;;;1.50;;
50815;SDS011;39717;47.324;8.788;2022-12-22T08:16:32;2.53;;;1.53;;
50815;SDS011;39717;47.324;8.788;2022-12-22T08:18:58;3.17;;;1.57;;
50815;SDS011;39717;47.324;8.788;2022-12-22T08:21:24;2.87;;;1.30;;
50815;SDS011;39717;47.324;8.788;2022-12-22T08:23:50;3.37;;;1.30;;
50815;SDS011;39717;47.324;8.788;2022-12-22T08:29:02;3.80;;;1.57;;
50815;SDS011;39717;47.324;8.788;2022-12-22T08:31:35;1.90;;;1.30;;
50815;SDS011;39717;47.324;8.788;2022-12-22T08:34:02;3.13;;;1.10;;
50815;SDS011;39717;47.324;8.788;2022-12-22T08:36:31;3.07;;;1.40;;
50815;SDS011;39717;47.324;8.788;2022-12-22T08:39:02;1.73;;;1.30;;
50815;SDS011;39717;47.324;8.788;2022-12-22T08:41:29;2.23;;;1.23;;
50815;SDS011;39717;47.324;8.788;2022-12-22T08:44:13;1.70;;;1.33;;
50815;SDS011;39717;47.324;8.788;2022-12-22T08:46:39;0.93;;;0.90;;
50815;SDS011;39717;47.324;8.788;2022-12-22T08:49:05;2.80;;;1.47;;
50815;SDS011;39717;47.324;8.788;2022-12-22T08:51:31;1.90;;;1.13;;
50815;SDS011;39717;47.324;8.788;2022-12-22T08:53:58;2.97;;;1.37;;
50815;SDS011;39717;47.324;8.788;2022-12-22T08:56:24;2.53;;;1.17;;
50815;SDS011;39717;47.324;8.788;2022-12-22T08:58:50;3.47;;;1.40;;
50815;SDS011;39717;47.324;8.788;2022-12-22T09:01:19;2.83;;;1.50;;
50815;SDS011;39717;47.324;8.788;2022-12-22T09:03:50;2.87;;;1.37;;
50815;SDS011;39717;47.324;8.788;2022-12-22T09:06:17;4.10;;;1.20;;
50815;SDS011;39717;47.324;8.788;2022-12-22T09:08:44;1.67;;;0.90;;
50815;SDS011;39717;47.324;8.788;2022-12-22T09:11:10;1.40;;;0.73;;
50815;SDS011;39717;47.324;8.788;2022-12-22T09:13:36;1.53;;;1.00;;
50815;SDS011;39717;47.324;8.788;2022-12-22T09:16:05;2.40;;;1.37;;
50815;SDS011;39717;47.324;8.788;2022-12-22T09:18:32;5.67;;;1.83;;
50815;SDS011;39717;47.324;8.788;2022-12-22T09:20:58;1.93;;;1.20;;
50815;SDS011;39717;47.324;8.788;2022-12-22T09:23:24;6.53;;;1.20;;
50815;SDS011;39717;47.324;8.788;2022-12-22T09:25:53;3.27;;;1.53;;
50815;SDS011;39717;47.324;8.788;2022-12-22T09:28:19;5.97;;;1.30;;
50815;SDS011;39717;47.324;8.788;2022-12-22T09:30:49;0.93;;;0.67;;
50815;SDS011;39717;47.324;8.788;2022-12-22T09:33:16;11.07;;;1.40;;
50815;SDS011;39717;47.324;8.788;2022-12-22T09:35:42;2.33;;;1.33;;
50815;SDS011;39717;47.324;8.788;2022-12-22T09:38:08;4.30;;;1.70;;
50815;SDS011;39717;47.324;8.788;2022-12-22T09:40:34;3.80;;;1.40;;
50815;SDS011;39717;47.324;8.788;2022-12-22T09:43:01;1.77;;;1.10;;
50815;SDS011;39717;47.324;8.788;2022-12-22T09:45:29;5.47;;;1.50;;
50815;SDS011;39717;47.324;8.788;2022-12-22T09:47:58;3.47;;;1.70;;
50815;SDS011;39717;47.324;8.788;2022-12-22T09:50:25;2.57;;;1.53;;
50815;SDS011;39717;47.324;8.788;2022-12-22T09:52:56;1.37;;;0.70;;
50815;SDS011;39717;47.324;8.788;2022-12-22T09:57:51;5.17;;;1.83;;
50815;SDS011;39717;47.324;8.788;2022-12-22T10:00:19;4.67;;;1.57;;
50815;SDS011;39717;47.324;8.788;2022-12-22T10:07:54;6.23;;;1.80;;
50815;SDS011;39717;47.324;8.788;2022-12-22T10:10:25;2.90;;;1.30;;
50815;SDS011;39717;47.324;8.788;2022-12-22T10:12:59;6.03;;;2.07;;
50815;SDS011;39717;47.324;8.788;2022-12-22T10:15:26;7.73;;;2.00;;
50815;SDS011;39717;47.324;8.788;2022-12-22T10:17:53;9.07;;;2.50;;
50815;SDS011;39717;47.324;8.788;2022-12-22T10:20:33;6.60;;;1.87;;
50815;SDS011;39717;47.324;8.788;2022-12-22T10:23:03;3.70;;;1.50;;
50815;SDS011;39717;47.324;8.788;2022-12-22T10:25:39;4.73;;;1.50;;
50815;SDS011;39717;47.324;8.788;2022-12-22T10:28:06;4.73;;;1.90;;
50815;SDS011;39717;47.324;8.788;2022-12-22T10:30:34;4.07;;;1.67;;
50815;SDS011;39717;47.324;8.788;2022-12-22T10:33:02;5.17;;;1.43;;
50815;SDS011;39717;47.324;8.788;2022-12-22T10:38:32;6.90;;;2.07;;
50815;SDS011;39717;47.324;8.788;2022-12-22T10:41:07;3.33;;;1.00;;
50815;SDS011;39717;47.324;8.788;2022-12-22T10:43:39;7.63;;;1.90;;
50815;SDS011;39717;47.324;8.788;2022-12-22T10:46:10;3.63;;;1.60;;
50815;SDS011;39717;47.324;8.788;2022-12-22T10:48:37;5.20;;;1.40;;
50815;SDS011;39717;47.324;8.788;2022-12-22T10:51:05;4.10;;;1.70;;
50815;SDS011;39717;47.324;8.788;2022-12-22T10:53:48;3.20;;;1.87;;
50815;SDS011;39717;47.324;8.788;2022-12-22T10:56:23;7.30;;;1.87;;
50815;SDS011;39717;47.324;8.788;2022-12-22T10:58:53;10.40;;;2.03;;
50815;SDS011;39717;47.324;8.788;2022-12-22T11:01:24;4.63;;;1.47;;
50815;SDS011;39717;47.324;8.788;2022-12-22T11:03:50;5.00;;;1.47;;
50815;SDS011;39717;47.324;8.788;2022-12-22T11:06:17;1.13;;;0.93;;
50815;SDS011;39717;47.324;8.788;2022-12-22T11:08:43;4.30;;;1.17;;
50815;SDS011;39717;47.324;8.788;2022-12-22T11:11:52;3.97;;;1.50;;
50815;SDS011;39717;47.324;8.788;2022-12-22T11:16:31;3.90;;;1.70;;
50815;SDS011;39717;47.324;8.788;2022-12-22T11:19:15;3.97;;;1.17;;
50815;SDS011;39717;47.324;8.788;2022-12-22T11:21:51;3.17;;;1.33;;
50815;SDS011;39717;47.324;8.788;2022-12-22T11:29:54;5.13;;;1.20;;
50815;SDS011;39717;47.324;8.788;2022-12-22T11:35:07;3.03;;;1.30;;
50815;SDS011;39717;47.324;8.788;2022-12-22T11:37:39;3.90;;;1.67;;
50815;SDS011;39717;47.324;8.788;2022-12-22T11:40:15;3.90;;;1.30;;
50815;SDS011;39717;47.324;8.788;2022-12-22T11:50:29;2.77;;;1.13;;
50815;SDS011;39717;47.324;8.788;2022-12-22T11:53:05;2.10;;;1.40;;
50815;SDS011;39717;47.324;8.788;2022-12-22T11:55:42;3.57;;;1.47;;
50815;SDS011;39717;47.324;8.788;2022-12-22T11:58:31;3.07;;;1.30;;
50815;SDS011;39717;47.324;8.788;2022-12-22T12:03:53;1.77;;;0.97;;
50815;SDS011;39717;47.324;8.788;2022-12-22T12:21:59;3.07;;;1.47;;
50815;SDS011;39717;47.324;8.788;2022-12-22T12:24:36;4.80;;;1.47;;
50815;SDS011;39717;47.324;8.788;2022-12-22T12:32:20;5.10;;;1.53;;
50815;SDS011;39717;47.324;8.788;2022-12-22T12:34:55;2.03;;;1.13;;
50815;SDS011;39717;47.324;8.788;2022-12-22T12:37:28;4.07;;;1.30;;
50815;SDS011;39717;47.324;8.788;2022-12-22T12:42:42;2.23;;;1.17;;
50815;SDS011;39717;47.324;8.788;2022-12-22T12:47:58;5.47;;;1.23;;
50815;SDS011;39717;47.324;8.788;2022-12-22T12:50:40;1.60;;;0.90;;
50815;SDS011;39717;47.324;8.788;2022-12-22T12:53:09;3.97;;;0.90;;
50815;SDS011;39717;47.324;8.788;2022-12-22T12:58:08;2.70;;;1.10;;
50815;SDS011;39717;47.324;8.788;2022-12-22T13:05:47;4.07;;;1.63;;
50815;SDS011;39717;47.324;8.788;2022-12-22T13:08:23;2.60;;;0.97;;
50815;SDS011;39717;47.324;8.788;2022-12-22T13:20:54;1.97;;;1.07;;
50815;SDS011;39717;47.324;8.788;2022-12-22T13:23:21;1.13;;;0.60;;
50815;SDS011;39717;47.324;8.788;2022-12-22T13:25:52;3.50;;;1.00;;
50815;SDS011;39717;47.324;8.788;2022-12-22T13:28:24;0.80;;;0.60;;
50815;SDS011;39717;47.324;8.788;2022-12-22T13:31:03;1.17;;;0.80;;
50815;SDS011;39717;47.324;8.788;2022-12-22T13:33:38;5.73;;;1.23;;
50815;SDS011;39717;47.324;8.788;2022-12-22T13:36:07;1.63;;;0.80;;
50815;SDS011;39717;47.324;8.788;2022-12-22T13:38:43;1.73;;;0.90;;
50815;SDS011;39717;47.324;8.788;2022-12-22T13:41:18;2.43;;;1.23;;
50815;SDS011;39717;47.324;8.788;2022-12-22T13:43:50;4.00;;;1.20;;
50815;SDS011;39717;47.324;8.788;2022-12-22T13:46:18;1.20;;;0.87;;
50815;SDS011;39717;47.324;8.788;2022-12-22T13:48:45;1.73;;;1.20;;
50815;SDS011;39717;47.324;8.788;2022-12-22T13:51:28;2.93;;;1.00;;
50815;SDS011;39717;47.324;8.788;2022-12-22T13:54:13;1.50;;;0.80;;
50815;SDS011;39717;47.324;8.788;2022-12-22T13:56:42;2.10;;;0.80;;
50815;SDS011;39717;47.324;8.788;2022-12-22T14:01:55;3.30;;;1.10;;
50815;SDS011;39717;47.324;8.788;2022-12-22T14:04:22;3.20;;;1.17;;
50815;SDS011;39717;47.324;8.788;2022-12-22T14:06:48;3.93;;;0.90;;
50815;SDS011;39717;47.324;8.788;2022-12-22T14:09:32;1.97;;;0.97;;
50815;SDS011;39717;47.324;8.788;2022-12-22T14:14:29;2.70;;;0.80;;
50815;SDS011;39717;47.324;8.788;2022-12-22T14:16:57;2.97;;;1.10;;
50815;SDS011;39717;47.324;8.788;2022-12-22T14:19:24;3.17;;;1.00;;
50815;SDS011;39717;47.324;8.788;2022-12-22T14:21:59;2.90;;;1.27;;
50815;SDS011;39717;47.324;8.788;2022-12-22T14:24:26;3.30;;;0.97;;
50815;SDS011;39717;47.324;8.788;2022-12-22T14:26:53;4.13;;;1.30;;
50815;SDS011;39717;47.324;8.788;2022-12-22T14:29:21;2.97;;;1.20;;
50815;SDS011;39717;47.324;8.788;2022-12-22T14:32:08;2.03;;;1.00;;
50815;SDS011;39717;47.324;8.788;2022-12-22T14:34:36;2.90;;;1.10;;
50815;SDS011;39717;47.324;8.788;2022-12-22T14:37:02;4.13;;;1.03;;
50815;SDS011;39717;47.324;8.788;2022-12-22T14:39:29;2.10;;;1.20;;
50815;SDS011;39717;47.324;8.788;2022-12-22T14:42:00;3.60;;;1.53;;
50815;SDS011;39717;47.324;8.788;2022-12-22T14:44:31;5.83;;;1.20;;
50815;SDS011;39717;47.324;8.788;2022-12-22T14:50:00;6.10;;;1.20;;
50815;SDS011;39717;47.324;8.788;2022-12-22T14:53:04;1.77;;;1.10;;
50815;SDS011;39717;47.324;8.788;2022-12-22T14:55:35;4.43;;;1.83;;
50815;SDS011;39717;47.324;8.788;2022-12-22T15:00:40;2.33;;;0.87;;
50815;SDS011;39717;47.324;8.788;2022-12-22T15:11:41;2.40;;;0.97;;
50815;SDS011;39717;47.324;8.788;2022-12-22T15:14:11;3.00;;;1.03;;
50815;SDS011;39717;47.324;8.788;2022-12-22T15:16:43;4.23;;;0.93;;
50815;SDS011;39717;47.324;8.788;2022-12-22T15:19:11;1.30;;;0.70;;
50815;SDS011;39717;47.324;8.788;2022-12-22T15:21:41;1.67;;;0.90;;
50815;SDS011;39717;47.324;8.788;2022-12-22T15:24:10;1.90;;;0.80;;
50815;SDS011;39717;47.324;8.788;2022-12-22T15:26:39;2.13;;;0.90;;
50815;SDS011;39717;47.324;8.788;2022-12-22T15:29:06;3.10;;;1.40;;
50815;SDS011;39717;47.324;8.788;2022-12-22T15:31:33;1.90;;;1.17;;
50815;SDS011;39717;47.324;8.788;2022-12-22T15:34:00;1.53;;;0.97;;
50815;SDS011;39717;47.324;8.788;2022-12-22T15:36:31;7.70;;;1.30;;
50815;SDS011;39717;47.324;8.788;2022-12-22T15:38:57;4.60;;;1.90;;
50815;SDS011;39717;47.324;8.788;2022-12-22T15:41:22;2.67;;;1.43;;
50815;SDS011;39717;47.324;8.788;2022-12-22T15:43:48;3.00;;;1.20;;
50815;SDS011;39717;47.324;8.788;2022-12-22T15:46:14;1.23;;;0.70;;
50815;SDS011;39717;47.324;8.788;2022-12-22T15:48:42;4.10;;;1.07;;
50815;SDS011;39717;47.324;8.788;2022-12-22T15:51:14;2.77;;;1.20;;
50815;SDS011;39717;47.324;8.788;2022-12-22T15:53:45;1.80;;;1.10;;
50815;SDS011;39717;47.324;8.788;2022-12-22T15:56:12;2.97;;;1.07;;
50815;SDS011;39717;47.324;8.788;2022-12-22T15:58:43;3.60;;;1.40;;
50815;SDS011;39717;47.324;8.788;2022-12-22T16:01:09;2.83;;;1.30;;
50815;SDS011;39717;47.324;8.788;2022-12-22T16:03:36;2.60;;;1.37;;
50815;SDS011;39717;47.324;8.788;2022-12-22T16:06:02;5.27;;;1.53;;
50815;SDS011;39717;47.324;8.788;2022-12-22T16:08:29;2.43;;;1.00;;
50815;SDS011;39717;47.324;8.788;2022-12-22T16:11:00;7.20;;;2.03;;
50815;SDS011;39717;47.324;8.788;2022-12-22T16:13:27;3.67;;;1.70;;
50815;SDS011;39717;47.324;8.788;2022-12-22T16:15:54;10.60;;;4.80;;
50815;SDS011;39717;47.324;8.788;2022-12-22T16:18:21;3.60;;;1.20;;
50815;SDS011;39717;47.324;8.788;2022-12-22T16:20:47;3.93;;;1.33;;
50815;SDS011;39717;47.324;8.788;2022-12-22T16:23:17;3.57;;;1.90;;
50815;SDS011;39717;47.324;8.788;2022-12-22T16:25:46;5.13;;;1.50;;
50815;SDS011;39717;47.324;8.788;2022-12-22T16:28:21;2.47;;;1.53;;
50815;SDS011;39717;47.324;8.788;2022-12-22T16:30:50;3.37;;;1.53;;
50815;SDS011;39717;47.324;8.788;2022-12-22T16:33:16;2.50;;;1.30;;
50815;SDS011;39717;47.324;8.788;2022-12-22T16:35:44;2.77;;;1.40;;
50815;SDS011;39717;47.324;8.788;2022-12-22T16:38:10;3.70;;;1.20;;
50815;SDS011;39717;47.324;8.788;2022-12-22T16:40:40;2.90;;;1.20;;
50815;SDS011;39717;47.324;8.788;2022-12-22T16:43:21;2.63;;;1.27;;
50815;SDS011;39717;47.324;8.788;2022-12-22T16:45:54;3.23;;;1.60;;
50815;SDS011;39717;47.324;8.788;2022-12-22T16:48:25;2.97;;;1.40;;
50815;SDS011;39717;47.324;8.788;2022-12-22T16:51:03;4.63;;;1.40;;
50815;SDS011;39717;47.324;8.788;2022-12-22T16:53:29;3.73;;;1.77;;
50815;SDS011;39717;47.324;8.788;2022-12-22T16:55:55;1.80;;;1.30;;
50815;SDS011;39717;47.324;8.788;2022-12-22T16:58:21;3.03;;;1.50;;
50815;SDS011;39717;47.324;8.788;2022-12-22T17:00:47;4.13;;;1.40;;
50815;SDS011;39717;47.324;8.788;2022-12-22T17:03:31;4.83;;;2.27;;
50815;SDS011;39717;47.324;8.788;2022-12-22T17:05:57;4.37;;;1.63;;
50815;SDS011;39717;47.324;8.788;2022-12-22T17:08:28;3.53;;;1.20;;
50815;SDS011;39717;47.324;8.788;2022-12-22T17:11:01;3.37;;;1.60;;
50815;SDS011;39717;47.324;8.788;2022-12-22T17:13:30;4.00;;;1.47;;
50815;SDS011;39717;47.324;8.788;2022-12-22T17:15:56;4.77;;;1.40;;
50815;SDS011;39717;47.324;8.788;2022-12-22T17:18:24;5.33;;;1.70;;